Global Enterprise — 3FCJ6 — position and weather

sailwx.info

Track history (hours):
 
Tides and Currents Weather Stations Pressure Air Temp Water Temp Dewpoint Dewpoint Depression Visibility Wind Speed Wind Dir Waves Ship Positions

Global Enterprise

Last reported at 2014-Jul-08 15:17 UTC. Time now 2014-Jul-23 07:47 UTC.
Position S 08°46' E 115°43'.
Warning: this ship's position is 14 days out of date.

Length 290 m; draft 10.1 m.

Type: Cargo ship. MMSI: 356308000.

Date/timePositionNaut miles runAvg speedWind from/ knotsBaromVisibWave heightAir tempDewpointWater temp
2014-Jul-08 15:17S 08°46' E 115°43'  
2014-Jun-29 22:23N 33°57' E 124°03'1213.6
2014-Jun-29 21:31N 34°08' E 123°58'1312.8
2014-Jun-29 20:32N 34°20' E 123°54'3611.3
2014-Jun-29 17:20N 34°52' E 123°33'1213.0
2014-Jun-29 16:23N 34°56' E 123°19'1113.3
2014-Jun-29 15:33N 35°01' E 123°07'1613.4
2014-Jun-29 14:21N 35°08' E 122°49'1613.7
2014-Jun-29 13:10N 35°14' E 122°30'2713.6
2014-Jun-29 11:13N 35°14' E 121°58'2413.0
2014-Jun-29 09:25N 35°15' E 121°29'5012.7
2014-Jun-29 05:31N 35°14' E 120°28'1212.2
2014-Jun-29 04:33N 35°17' E 120°14'1212.5
2014-Jun-29 03:33N 35°21' E 119°60'1211.9
2014-Jun-29 02:33N 35°29' E 119°50'6 5.3
2014-Jun-29 01:28N 35°35' E 119°47'0 0.0
2014-Jun-29 00:16N 35°35' E 119°47'0 0.0
2014-Jun-28 23:28N 35°35' E 119°47'0 0.0
2014-Jun-28 22:16N 35°35' E 119°47'0 0.0
2014-Jun-28 21:23N 35°35' E 119°47'0 0.0
2014-Jun-28 20:29N 35°35' E 119°47'0 0.0
2014-Jun-28 19:11N 35°35' E 119°47'0 0.0
2014-Jun-28 18:29N 35°35' E 119°47'0 0.0
2014-Jun-28 17:29N 35°35' E 119°47'0 0.0
2014-Jun-28 16:17N 35°35' E 119°47'0 0.0
2014-Jun-28 15:29N 35°35' E 119°47'  
Track history (hours):
 
Tides and Currents Weather Stations Pressure Air Temp Water Temp Dewpoint Dewpoint Depression Visibility Wind Speed Wind Dir Waves Ship Positions

Global Enterprise

Last reported at 2014-Jul-08 15:17 UTC. Time now 2014-Jul-23 07:47 UTC.
Position S 08°46' E 115°43'.
Warning: this ship's position is 14 days out of date.

Length 290 m; draft 10.1 m.

Type: Cargo ship. MMSI: 356308000.

Date/timePositionNaut miles runAvg speedWind from/ knotsBaromVisibWave heightAir tempDewpointWater temp
2014-Jul-08 15:17S 08°46' E 115°43'  
2014-Jun-29 22:23N 33°57' E 124°03'1213.6
2014-Jun-29 21:31N 34°08' E 123°58'1312.8
2014-Jun-29 20:32N 34°20' E 123°54'3611.3
2014-Jun-29 17:20N 34°52' E 123°33'1213.0
2014-Jun-29 16:23N 34°56' E 123°19'1113.3
2014-Jun-29 15:33N 35°01' E 123°07'1613.4
2014-Jun-29 14:21N 35°08' E 122°49'1613.7
2014-Jun-29 13:10N 35°14' E 122°30'2713.6
2014-Jun-29 11:13N 35°14' E 121°58'2413.0
2014-Jun-29 09:25N 35°15' E 121°29'5012.7
2014-Jun-29 05:31N 35°14' E 120°28'1212.2
2014-Jun-29 04:33N 35°17' E 120°14'1212.5
2014-Jun-29 03:33N 35°21' E 119°60'1211.9
2014-Jun-29 02:33N 35°29' E 119°50'6 5.3
2014-Jun-29 01:28N 35°35' E 119°47'0 0.0
2014-Jun-29 00:16N 35°35' E 119°47'0 0.0
2014-Jun-28 23:28N 35°35' E 119°47'0 0.0
2014-Jun-28 22:16N 35°35' E 119°47'0 0.0
2014-Jun-28 21:23N 35°35' E 119°47'0 0.0
2014-Jun-28 20:29N 35°35' E 119°47'0 0.0
2014-Jun-28 19:11N 35°35' E 119°47'0 0.0
2014-Jun-28 18:29N 35°35' E 119°47'0 0.0
2014-Jun-28 17:29N 35°35' E 119°47'0 0.0
2014-Jun-28 16:17N 35°35' E 119°47'0 0.0
2014-Jun-28 15:29N 35°35' E 119°47'  

Dump ship's entire track history